Time;durP1;ratioP1;P1;durP2;ratioP2;P2;SDS_P1;SDS_P2;PMS_P1;PMS_P2;Temp;Humidity;BMP_temperature;BMP_pressure;BME280_temperature;BME280_humidity;BME280_pressure;Samples;Min_cycle;Max_cycle;Signal;HPM_P1;HPM_P2
2023/04/04 00:00:55;;;;;;;9.78;7.42;;;;;;;9.19;76.93;100368.78;1802795;79;21298;-63
2023/04/04 00:04:02;;;;;;;11.05;7.78;;;;;;;9.20;76.90;100365.55;1802551;79;21170;-63
2023/04/04 00:07:07;;;;;;;11.88;8.13;;;;;;;9.17;76.83;100357.17;1802694;78;21233;-62
2023/04/04 00:10:15;;;;;;;10.32;7.67;;;;;;;9.19;76.82;100362.46;1802626;79;21378;-62
2023/04/04 00:13:22;;;;;;;10.38;7.58;;;;;;;9.21;76.90;100364.02;1802457;79;21245;-62
2023/04/04 00:16:29;;;;;;;10.78;7.45;;;;;;;9.23;76.97;100363.31;1802545;79;21185;-61
2023/04/04 00:19:37;;;;;;;13.13;8.03;;;;;;;9.24;76.95;100358.72;1802616;79;21186;-62
2023/04/04 00:22:43;;;;;;;11.05;7.90;;;;;;;9.25;76.94;100368.61;1802520;78;21228;-63
2023/04/04 00:25:52;;;;;;;10.80;7.50;;;;;;;9.24;76.97;100371.02;1802689;79;21169;-61
2023/04/04 00:28:58;;;;;;;10.40;7.42;;;;;;;9.25;76.96;100370.84;1793975;79;21236;-62
2023/04/04 00:32:05;;;;;;;13.32;9.53;;;;;;;9.24;76.99;100369.64;1801774;78;21374;-62
2023/04/04 00:35:13;;;;;;;12.95;9.05;;;;;;;9.25;76.97;100374.07;1771087;80;21174;-63
2023/04/04 00:38:18;;;;;;;11.22;8.73;;;;;;;9.21;76.97;100373.58;1770826;80;21201;-62
2023/04/04 00:41:23;;;;;;;12.20;8.18;;;;;;;9.21;77.04;100385.87;1770781;80;21726;-62
2023/04/04 00:44:30;;;;;;;12.45;8.48;;;;;;;9.22;77.10;100391.66;1770852;80;21378;-62
2023/04/04 00:47:37;;;;;;;12.43;8.48;;;;;;;9.23;77.14;100387.90;1770843;80;21185;-61
2023/04/04 00:50:44;;;;;;;11.35;8.10;;;;;;;9.25;77.17;100392.69;1771020;79;21629;-63
2023/04/04 00:53:53;;;;;;;11.55;8.70;;;;;;;9.26;77.21;100397.12;1769707;79;21690;-62
2023/04/04 00:56:58;;;;;;;11.15;8.30;;;;;;;9.30;77.26;100407.21;1770653;80;21205;-63
2023/04/04 01:00:05;;;;;;;10.72;7.78;;;;;;;9.32;77.29;100401.08;1770833;80;21711;-63
2023/04/04 01:03:13;;;;;;;13.70;8.68;;;;;;;9.34;77.27;100396.31;1770902;79;21601;-63
2023/04/04 01:06:20;;;;;;;10.45;7.92;;;;;;;9.37;77.18;100398.70;1770831;80;21272;-64
2023/04/04 01:09:29;;;;;;;12.95;8.13;;;;;;;9.37;77.04;100395.44;1771027;81;21194;-63
2023/04/04 01:12:35;;;;;;;13.38;8.60;;;;;;;9.35;76.82;100395.27;1771695;80;21225;-63
2023/04/04 01:15:41;;;;;;;12.58;8.70;;;;;;;9.33;76.80;100392.71;1771526;80;21186;-64
2023/04/04 01:18:47;;;;;;;13.65;8.85;;;;;;;9.33;76.80;100394.08;1770981;80;21257;-63
2023/04/04 01:21:53;;;;;;;11.63;8.53;;;;;;;9.33;76.83;100391.34;1771066;80;21618;-63
2023/04/04 01:25:00;;;;;;;11.97;9.03;;;;;;;9.35;76.84;100389.81;1771016;79;21386;-64
2023/04/04 01:28:08;;;;;;;15.53;10.15;;;;;;;9.36;76.85;100380.58;1771713;80;21355;-63
2023/04/04 01:31:14;;;;;;;11.95;9.13;;;;;;;9.33;76.87;100379.05;1770916;81;21551;-62
2023/04/04 01:35:01;;;;;;;13.22;9.63;;;;;;;9.31;76.96;100382.45;1771061;79;21197;-63
2023/04/04 01:38:22;;;;;;;11.22;8.65;;;;;;;9.30;76.99;100389.45;1772207;79;21749;-64
2023/04/04 01:41:29;;;;;;;14.07;9.95;;;;;;;9.26;77.03;100401.75;1771282;81;21276;-62
2023/04/04 01:44:34;;;;;;;15.55;10.13;;;;;;;9.24;77.17;100403.28;1771661;80;21236;-62
2023/04/04 01:47:48;;;;;;;13.53;10.32;;;;;;;9.22;77.23;100397.13;1771056;81;21252;-61
2023/04/04 01:50:55;;;;;;;14.78;10.05;;;;;;;9.21;77.24;100404.98;1771396;79;21216;-63
2023/04/04 01:54:00;;;;;;;11.30;9.38;;;;;;;9.19;77.31;100400.70;1771462;79;21241;-62
2023/04/04 01:57:07;;;;;;;14.90;9.95;;;;;;;9.19;77.40;100408.39;1771501;80;21240;-61
2023/04/04 02:00:15;;;;;;;13.25;9.58;;;;;;;9.18;77.40;100404.46;1771209;81;21300;-63
2023/04/04 02:03:20;;;;;;;12.30;9.55;;;;;;;9.14;77.35;100406.66;1771160;81;21319;-62
2023/04/04 02:06:26;;;;;;;13.18;10.60;;;;;;;9.10;77.38;100417.05;1771896;80;21398;-62
2023/04/04 02:09:33;;;;;;;13.30;9.60;;;;;;;9.09;77.39;100407.66;1771307;80;21323;-62
2023/04/04 02:12:38;;;;;;;12.63;9.45;;;;;;;9.08;77.46;100408.70;1771276;80;21221;-62
2023/04/04 02:15:45;;;;;;;15.48;9.25;;;;;;;9.09;77.58;100413.99;1771031;80;21217;-63
2023/04/04 02:18:52;;;;;;;14.73;9.28;;;;;;;9.10;77.53;100418.42;1771227;79;21386;-63
2023/04/04 02:21:59;;;;;;;11.43;9.03;;;;;;;9.13;77.54;100425.95;1771180;81;21221;-63
2023/04/04 02:25:07;;;;;;;11.93;9.43;;;;;;;9.15;77.58;100428.84;1771195;80;21193;-63
2023/04/04 02:28:13;;;;;;;13.20;9.33;;;;;;;9.17;77.62;100420.48;1771107;80;21185;-62
2023/04/04 02:31:19;;;;;;;11.65;8.98;;;;;;;9.16;77.54;100419.65;1771073;79;21374;-62
2023/04/04 02:34:26;;;;;;;11.57;9.13;;;;;;;9.17;77.57;100409.05;1771158;81;21290;-63
2023/04/04 02:37:32;;;;;;;12.33;8.88;;;;;;;9.20;77.57;100408.72;1764391;81;21248;-62
2023/04/04 02:40:46;;;;;;;15.08;9.55;;;;;;;9.21;77.57;100409.09;1771056;79;21197;-63
2023/04/04 02:43:52;;;;;;;12.10;8.90;;;;;;;9.19;77.44;100412.48;1771835;80;21532;-63
2023/04/04 02:46:58;;;;;;;11.40;9.43;;;;;;;9.17;77.44;100424.58;1771236;80;21346;-63
2023/04/04 02:50:04;;;;;;;10.75;8.68;;;;;;;9.15;77.49;100426.11;1771212;81;21205;-61
2023/04/04 02:53:11;;;;;;;18.55;10.78;;;;;;;9.17;77.53;100428.67;1771107;81;21603;-63
2023/04/04 02:56:18;;;;;;;16.30;11.57;;;;;;;9.17;77.59;100437.73;1768959;80;21698;-62
2023/04/04 02:59:24;;;;;;;14.40;9.73;;;;;;;9.19;77.67;100432.97;1771145;81;21745;-64
2023/04/04 03:02:32;;;;;;;14.93;10.05;;;;;;;9.21;77.72;100437.77;1770940;81;21228;-62
2023/04/04 03:05:39;;;;;;;11.80;9.23;;;;;;;9.24;77.76;100440.66;1771275;80;21221;-63
2023/04/04 03:08:46;;;;;;;11.45;9.33;;;;;;;9.25;77.76;100448.69;1770966;81;21201;-62
2023/04/04 03:11:51;;;;;;;11.20;8.00;;;;;;;9.26;77.76;100447.66;1771089;79;21193;-61
2023/04/04 03:14:59;;;;;;;13.00;9.30;;;;;;;9.26;77.75;100458.58;1771085;80;21200;-58
2023/04/04 03:18:07;;;;;;;11.33;9.18;;;;;;;9.26;77.78;100455.84;1771967;80;21244;-59
2023/04/04 03:21:13;;;;;;;14.35;9.03;;;;;;;9.26;77.78;100462.67;1770867;80;21197;-59
2023/04/04 03:24:21;;;;;;;12.40;9.95;;;;;;;9.25;77.74;100467.80;1771093;79;21165;-59
2023/04/04 03:27:28;;;;;;;13.03;9.95;;;;;;;9.22;77.73;100476.33;1771007;80;21217;-59
2023/04/04 03:30:36;;;;;;;12.40;8.50;;;;;;;9.20;77.77;100474.27;1770991;81;21238;-58
2023/04/04 03:33:46;;;;;;;15.68;9.03;;;;;;;9.21;77.78;100483.33;1770952;80;21240;-59
2023/04/04 03:36:52;;;;;;;12.03;8.63;;;;;;;9.17;77.71;100479.20;1771793;79;21342;-58
2023/04/04 03:40:00;;;;;;;9.05;8.10;;;;;;;9.15;77.75;100480.73;1771000;80;21194;-59
2023/04/04 03:43:06;;;;;;;12.37;8.45;;;;;;;9.15;77.77;100475.27;1771151;80;21169;-58
2023/04/04 03:46:14;;;;;;;15.30;8.55;;;;;;;9.13;77.73;100485.52;1771044;80;21197;-58
2023/04/04 03:49:21;;;;;;;13.90;8.75;;;;;;;9.12;77.72;100491.98;1771222;80;21185;-60
2023/04/04 03:52:27;;;;;;;10.18;8.00;;;;;;;9.13;77.74;100487.39;1771105;80;21217;-59
2023/04/04 03:55:32;;;;;;;9.85;7.80;;;;;;;9.17;77.86;100493.72;1771491;79;21201;-59
2023/04/04 03:58:38;;;;;;;8.85;7.45;;;;;;;9.21;77.86;100495.62;1771049;79;21369;-58
2023/04/04 04:01:45;;;;;;;10.00;7.47;;;;;;;9.23;77.85;100490.86;1771155;79;21563;-58
2023/04/04 04:04:53;;;;;;;12.50;8.50;;;;;;;9.24;77.81;100494.79;1771106;80;21712;-60
2023/04/04 04:07:59;;;;;;;11.40;8.48;;;;;;;9.25;77.80;100495.12;1771161;80;21180;-59
2023/04/04 04:11:13;;;;;;;12.80;9.28;;;;;;;9.27;77.78;100491.72;1771184;80;21201;-59
2023/04/04 04:14:18;;;;;;;31.75;18.87;;;;;;;9.26;77.75;100494.09;1764386;81;21312;-59
2023/04/04 04:17:26;;;;;;;33.63;18.92;;;;;;;9.24;77.70;100496.16;1770904;79;21248;-58
2023/04/04 04:20:33;;;;;;;26.12;16.27;;;;;;;9.27;77.75;100494.95;1772049;80;21750;-60
2023/04/04 04:23:40;;;;;;;20.40;13.70;;;;;;;9.28;77.76;100506.22;1764321;80;21217;-59
2023/04/04 04:26:47;;;;;;;18.45;11.93;;;;;;;9.29;77.79;100504.72;1771171;79;21201;-60
2023/04/04 04:29:55;;;;;;;13.98;9.75;;;;;;;9.29;77.72;100503.34;1770733;81;21229;-59
2023/04/04 04:33:03;;;;;;;11.63;8.00;;;;;;;9.30;77.75;100493.26;1773907;79;21994;-59
2023/04/04 04:36:15;;;;;;;14.85;8.30;;;;;;;9.33;77.74;100490.19;1770647;80;21197;-59
2023/04/04 04:39:27;;;;;;;10.10;7.47;;;;;;;9.26;77.54;100485.89;1764875;80;21158;-59
2023/04/04 04:42:34;;;;;;;11.28;8.10;;;;;;;9.25;77.63;100485.56;1770797;81;21182;-59
2023/04/04 04:45:42;;;;;;;10.00;7.55;;;;;;;9.26;77.70;100484.53;1772937;79;21249;-59
2023/04/04 04:48:48;;;;;;;11.03;8.23;;;;;;;9.29;77.79;100495.16;1772140;79;21213;-59
2023/04/04 04:51:55;;;;;;;9.05;7.47;;;;;;;9.32;77.84;100508.98;1787694;78;21599;-58
2023/04/04 04:55:03;;;;;;;9.43;7.45;;;;;;;9.38;77.93;100502.84;1769839;79;21181;-59
2023/04/04 04:58:11;;;;;;;11.88;8.78;;;;;;;9.48;77.99;100502.21;1768653;79;21197;-58
2023/04/04 05:01:17;;;;;;;11.80;8.90;;;;;;;9.56;78.01;100513.17;1786045;79;21221;-59
2023/04/04 05:04:22;;;;;;;9.90;8.18;;;;;;;9.61;77.95;100517.09;1793755;78;21236;-58
2023/04/04 05:07:30;;;;;;;10.53;7.83;;;;;;;9.63;77.89;100522.39;1803417;78;21193;-58
2023/04/04 05:10:39;;;;;;;9.93;7.97;;;;;;;9.65;77.83;100510.30;1803106;78;21177;-59
2023/04/04 05:13:47;;;;;;;10.75;8.20;;;;;;;9.66;77.75;100517.96;1772337;81;21239;-59
2023/04/04 05:16:56;;;;;;;12.90;8.45;;;;;;;9.67;77.79;100520.52;1751044;81;21210;-59
2023/04/04 05:20:02;;;;;;;13.38;9.23;;;;;;;9.71;77.84;100527.39;1791122;79;21923;-58
2023/04/04 05:23:10;;;;;;;10.13;7.72;;;;;;;9.79;77.86;100519.20;1771524;80;21267;-59
2023/04/04 05:26:18;;;;;;;9.55;7.53;;;;;;;9.83;77.84;100515.09;1771844;80;21347;-59
2023/04/04 05:29:24;;;;;;;14.65;9.20;;;;;;;9.92;77.92;100513.25;1802595;78;21181;-61
2023/04/04 05:32:32;;;;;;;10.85;8.65;;;;;;;10.01;77.95;100514.45;1750211;80;21271;-60
2023/04/04 05:35:41;;;;;;;8.83;7.65;;;;;;;10.15;77.99;100527.50;1777488;79;21386;-59
2023/04/04 05:38:48;;;;;;;9.48;7.85;;;;;;;10.25;77.92;100522.73;1803659;78;21173;-59
2023/04/04 05:41:55;;;;;;;10.28;8.13;;;;;;;10.37;77.86;100536.40;1779601;78;21205;-59
2023/04/04 05:45:05;;;;;;;15.75;8.73;;;;;;;10.41;77.66;100529.57;1772569;80;21390;-59
2023/04/04 05:48:11;;;;;;;8.55;7.00;;;;;;;10.49;77.68;100537.78;1772178;80;21699;-60
2023/04/04 05:51:17;;;;;;;10.80;7.60;;;;;;;10.63;77.74;100535.36;1764727;80;21245;-58
2023/04/04 05:54:24;;;;;;;9.83;7.40;;;;;;;10.70;77.59;100532.28;1775393;79;21200;-60
2023/04/04 05:57:31;;;;;;;10.28;7.42;;;;;;;10.77;77.59;100538.25;1772273;80;21212;-59
2023/04/04 06:00:38;;;;;;;10.60;7.40;;;;;;;10.87;77.45;100524.38;1774770;79;21214;-60
2023/04/04 06:03:45;;;;;;;9.33;7.03;;;;;;;10.91;77.36;100532.06;1768331;79;21309;-59
2023/04/04 06:06:53;;;;;;;10.95;6.97;;;;;;;10.97;77.38;100542.34;1772180;79;21216;-59
2023/04/04 06:09:59;;;;;;;10.68;7.58;;;;;;;11.10;77.38;100543.17;1792835;79;21189;-64
2023/04/04 06:13:06;;;;;;;7.87;6.50;;;;;;;11.16;77.20;100542.47;1800816;79;21193;-67
2023/04/04 06:16:14;;;;;;;9.70;7.10;;;;;;;11.20;77.19;100546.55;1783416;79;21260;-61
2023/04/04 06:19:21;;;;;;;9.65;7.67;;;;;;;11.21;77.06;100551.02;1774306;79;21251;-64
2023/04/04 06:22:27;;;;;;;9.80;7.20;;;;;;;11.26;77.13;100534.37;1769214;81;21283;-65
2023/04/04 06:25:35;;;;;;;9.65;7.42;;;;;;;11.38;77.20;100540.33;1769981;79;21321;-65
2023/04/04 06:28:42;;;;;;;11.57;7.37;;;;;;;11.47;77.12;100547.48;1784504;78;21236;-64
2023/04/04 06:31:51;;;;;;;15.30;7.97;;;;;;;11.55;77.10;100546.08;1802149;78;21202;-58
2023/04/04 06:34:59;;;;;;;10.18;6.95;;;;;;;11.71;77.21;100547.41;1802224;79;21186;-59
2023/04/04 06:38:08;;;;;;;9.85;7.03;;;;;;;11.92;77.31;100551.77;1764567;81;21256;-59
2023/04/04 06:41:16;;;;;;;11.80;7.00;;;;;;;12.11;77.27;100544.44;1776910;79;21217;-60
2023/04/04 06:44:22;;;;;;;8.85;6.35;;;;;;;12.31;77.21;100550.28;1774003;79;21273;-59
2023/04/04 06:47:31;;;;;;;8.98;6.55;;;;;;;12.41;76.91;100552.27;1801156;79;21308;-59
2023/04/04 06:50:37;;;;;;;9.25;6.45;;;;;;;12.45;76.72;100553.09;1796489;79;21240;-58
2023/04/04 06:53:44;;;;;;;9.15;5.80;;;;;;;12.57;76.72;100555.75;1798203;79;21154;-58
2023/04/04 06:56:51;;;;;;;7.40;6.15;;;;;;;12.69;76.54;100549.28;1766087;80;21216;-59
2023/04/04 06:59:57;;;;;;;8.85;6.47;;;;;;;12.76;76.42;100551.12;1792873;79;21225;-59
2023/04/04 07:03:06;;;;;;;8.40;5.92;;;;;;;12.93;76.51;100549.05;1803836;79;21174;-59
2023/04/04 07:06:14;;;;;;;6.35;5.15;;;;;;;13.08;76.27;100554.11;1802786;78;21355;-59
2023/04/04 07:09:22;;;;;;;6.90;5.50;;;;;;;13.12;75.96;100557.66;1795849;79;21193;-59
2023/04/04 07:12:30;;;;;;;7.22;5.50;;;;;;;13.14;75.73;100561.08;1785186;79;21221;-60
2023/04/04 07:15:38;;;;;;;9.20;5.75;;;;;;;13.27;75.81;100567.30;1787228;79;21221;-59
2023/04/04 07:18:45;;;;;;;9.80;6.03;;;;;;;13.42;75.77;100566.26;1765955;81;21236;-59
2023/04/04 07:21:52;;;;;;;7.62;5.47;;;;;;;13.59;75.76;100571.56;1751826;82;21539;-60
2023/04/04 07:25:00;;;;;;;7.08;5.53;;;;;;;13.73;75.37;100572.07;1736220;82;21343;-59
2023/04/04 07:28:05;;;;;;;7.17;5.60;;;;;;;13.82;75.19;100568.16;1752127;81;21234;-59
2023/04/04 07:31:13;;;;;;;9.78;6.42;;;;;;;13.93;75.15;100570.42;1732919;81;21271;-58
2023/04/04 07:34:20;;;;;;;8.75;6.03;;;;;;;13.98;74.90;100571.56;1722125;82;21388;-59
2023/04/04 07:37:28;;;;;;;8.10;5.87;;;;;;;14.08;74.96;100578.14;1719887;83;21230;-59
2023/04/04 07:40:36;;;;;;;74.25;34.10;;;;;;;14.21;75.02;100587.91;1799280;79;21217;-59
2023/04/04 07:43:44;;;;;;;7.15;5.65;;;;;;;14.35;74.91;100585.69;1791026;79;21257;-60
2023/04/04 07:46:49;;;;;;;6.97;5.87;;;;;;;14.45;74.82;100587.58;1794453;79;21180;-58
2023/04/04 07:49:57;;;;;;;8.58;5.92;;;;;;;14.59;74.90;100594.41;1799444;79;21318;-59
2023/04/04 07:53:06;;;;;;;8.20;6.05;;;;;;;14.71;74.64;100587.86;1791363;79;21436;-58
2023/04/04 07:56:12;;;;;;;8.88;6.20;;;;;;;14.85;74.49;100585.55;1802294;78;21174;-59
2023/04/04 07:59:52;;;;;;;8.33;6.33;;;;;;;14.99;74.35;100586.84;1795141;79;21760;-59
2023/04/04 08:03:02;;;;;;;8.95;6.75;;;;;;;15.09;74.12;100580.98;1777301;79;21381;-62
2023/04/04 08:06:11;;;;;;;8.18;5.87;;;;;;;15.24;74.05;100586.41;1734437;82;21216;-60
2023/04/04 08:09:17;;;;;;;7.47;5.22;;;;;;;15.39;74.05;100582.52;1770306;80;21205;-58
2023/04/04 08:12:25;;;;;;;6.58;5.37;;;;;;;15.49;73.98;100580.23;1735081;82;21220;-59
2023/04/04 08:15:32;;;;;;;8.93;5.62;;;;;;;15.58;73.77;100577.66;1770707;79;21201;-62
2023/04/04 08:18:40;;;;;;;7.10;5.55;;;;;;;15.63;73.45;100580.66;1769534;80;21190;-60
2023/04/04 08:21:46;;;;;;;10.85;7.05;;;;;;;15.65;73.26;100580.45;1769996;79;21217;-58
2023/04/04 08:24:52;;;;;;;6.55;5.45;;;;;;;15.72;73.12;100582.19;1770054;80;21212;-60
2023/04/04 08:27:59;;;;;;;8.65;5.40;;;;;;;15.83;73.05;100588.51;1775543;79;21691;-58
2023/04/04 08:31:07;;;;;;;7.78;5.30;;;;;;;15.92;72.92;100590.03;1739895;81;21259;-59
2023/04/04 08:34:14;;;;;;;13.13;9.13;;;;;;;15.94;72.58;100593.45;1773698;79;21591;-62
2023/04/04 08:37:20;;;;;;;11.65;6.47;;;;;;;16.00;72.45;100595.90;1768061;80;21220;-60
2023/04/04 08:40:25;;;;;;;10.50;6.35;;;;;;;16.09;72.45;100594.69;1734738;81;21204;-60
2023/04/04 08:43:33;;;;;;;9.63;6.15;;;;;;;16.10;72.24;100593.09;1787760;79;21414;-59
2023/04/04 08:46:39;;;;;;;7.45;5.95;;;;;;;16.10;72.30;100592.23;1773620;79;22213;-59
2023/04/04 08:49:50;;;;;;;8.95;6.60;;;;;;;16.18;72.57;100587.39;1767776;79;21743;-60
2023/04/04 08:53:00;;;;;;;10.20;6.50;;;;;;;16.19;72.37;100589.08;1764719;81;21709;-59
2023/04/04 08:56:07;;;;;;;8.30;6.10;;;;;;;16.24;72.56;100587.94;1800514;79;21565;-59
2023/04/04 08:59:14;;;;;;;11.08;6.37;;;;;;;16.27;72.72;100589.42;1801628;79;21550;-60
2023/04/04 09:02:35;;;;;;;8.80;6.08;;;;;;;16.35;72.69;100593.38;1796922;79;21260;-60
2023/04/04 09:05:40;;;;;;;12.73;6.50;;;;;;;16.38;72.36;100593.83;1734101;82;21776;-59
2023/04/04 09:08:45;;;;;;;8.00;6.22;;;;;;;16.45;72.30;100585.59;1762851;79;21189;-61
2023/04/04 09:11:50;;;;;;;8.40;6.28;;;;;;;16.53;72.15;100581.77;1770025;79;21213;-59
2023/04/04 09:14:58;;;;;;;8.55;6.60;;;;;;;16.58;71.97;100585.63;1789721;79;21209;-59
2023/04/04 09:18:05;;;;;;;7.95;6.10;;;;;;;16.61;71.72;100587.97;1771063;79;21758;-60
2023/04/04 09:21:18;;;;;;;8.80;6.47;;;;;;;16.58;71.30;100577.85;1787046;79;21622;-60
2023/04/04 09:24:24;;;;;;;11.45;6.37;;;;;;;16.48;70.97;100570.48;1794585;79;21720;-59
2023/04/04 09:27:32;;;;;;;9.03;6.50;;;;;;;16.42;71.02;100584.08;1801769;79;21248;-60
2023/04/04 09:30:40;;;;;;;11.48;6.67;;;;;;;16.37;70.94;100578.31;1782963;79;21257;-59
2023/04/04 09:33:47;;;;;;;9.85;6.85;;;;;;;16.31;70.94;100582.44;1727941;82;21321;-59
2023/04/04 09:36:55;;;;;;;8.33;6.75;;;;;;;16.27;71.04;100582.52;1780164;79;21210;-60
2023/04/04 09:40:02;;;;;;;9.68;7.17;;;;;;;16.24;71.11;100582.41;1798849;79;21289;-60
2023/04/04 09:43:09;;;;;;;10.43;7.33;;;;;;;16.15;70.86;100574.52;1780090;79;21241;-60
2023/04/04 09:46:14;;;;;;;10.38;7.37;;;;;;;16.07;70.86;100578.84;1770005;80;21531;-60
2023/04/04 09:49:27;;;;;;;8.55;7.25;;;;;;;16.07;70.88;100581.09;1770571;79;21182;-59
2023/04/04 09:52:35;;;;;;;11.63;7.20;;;;;;;16.19;71.01;100582.70;1770576;80;21209;-59
2023/04/04 09:55:43;;;;;;;9.23;6.87;;;;;;;16.19;71.01;100582.70;1784345;79;21288;-58
2023/04/04 09:58:55;;;;;;;10.68;6.53;;;;;;;16.27;70.68;100582.52;1788368;79;21298;-59
2023/04/04 10:02:04;;;;;;;13.28;7.78;;;;;;;16.32;70.46;100575.32;1791413;79;21166;-60
2023/04/04 10:05:11;;;;;;;12.37;7.33;;;;;;;16.34;70.41;100575.97;1725660;80;21362;-59
2023/04/04 10:08:23;;;;;;;9.35;6.90;;;;;;;16.36;70.53;100575.21;1749334;79;21201;-59
2023/04/04 10:11:41;;;;;;;11.22;7.10;;;;;;;16.52;70.62;100573.17;1763279;79;21783;-59
2023/04/04 10:14:51;;;;;;;10.15;6.22;;;;;;;16.70;70.48;100578.95;1755873;79;21236;-59
2023/04/04 10:17:58;;;;;;;11.83;7.15;;;;;;;16.89;70.23;100572.56;1739384;79;21223;-66
2023/04/04 10:21:04;;;;;;;9.78;7.05;;;;;;;17.06;70.03;100565.02;1730413;80;21200;-65
2023/04/04 10:24:13;;;;;;;11.85;7.87;;;;;;;17.23;69.79;100575.13;1763569;79;21270;-65
2023/04/04 10:27:19;;;;;;;11.22;7.70;;;;;;;17.37;69.66;100568.51;1758145;79;21795;-64
2023/04/04 10:30:26;;;;;;;9.95;6.97;;;;;;;17.59;69.48;100571.38;1768080;79;21243;-65
2023/04/04 10:34:17;;;;;;;8.45;6.33;;;;;;;17.76;69.15;100564.28;1756631;80;21563;-64
2023/04/04 10:37:29;;;;;;;9.70;6.80;;;;;;;17.90;69.01;100570.13;1759973;79;21814;-63
2023/04/04 10:40:42;;;;;;;8.58;6.28;;;;;;;17.92;68.62;100569.91;1762629;79;21185;-66
2023/04/04 10:43:48;;;;;;;7.55;5.92;;;;;;;17.93;68.57;100569.13;1752052;79;21196;-66
2023/04/04 10:46:57;;;;;;;9.98;6.60;;;;;;;17.88;68.33;100568.96;1751332;80;21240;-65
2023/04/04 10:50:03;;;;;;;8.43;7.00;;;;;;;17.74;68.14;100566.45;1762400;80;21525;-67
2023/04/04 10:53:09;;;;;;;8.03;5.60;;;;;;;17.59;68.24;100561.16;1752974;81;21203;-65
2023/04/04 10:56:16;;;;;;;13.35;6.55;;;;;;;17.42;68.01;100561.27;1710991;81;21754;-65
2023/04/04 10:59:23;;;;;;;10.03;5.62;;;;;;;17.22;67.92;100562.37;1752808;80;21919;-66
2023/04/04 11:02:56;;;;;;;9.58;6.17;;;;;;;17.08;68.03;100557.88;1754125;80;21227;-66
2023/04/04 11:06:03;;;;;;;7.55;5.72;;;;;;;16.97;68.05;100553.00;1764317;79;21225;-66
2023/04/04 11:09:09;;;;;;;8.08;5.35;;;;;;;16.77;67.79;100557.16;1774357;79;21334;-65
2023/04/04 11:12:22;;;;;;;8.58;6.08;;;;;;;16.59;67.71;100555.53;1774708;79;21195;-67
2023/04/04 11:15:30;;;;;;;6.45;5.50;;;;;;;16.39;67.48;100556.83;1780375;79;21190;-66
2023/04/04 11:18:51;;;;;;;11.28;6.05;;;;;;;16.15;67.31;100546.89;1773005;79;21188;-64
2023/04/04 11:21:59;;;;;;;10.03;6.15;;;;;;;15.95;67.34;100543.23;1789304;79;21238;-66
2023/04/04 11:25:08;;;;;;;9.05;6.08;;;;;;;15.72;67.47;100553.20;1769824;79;21258;-65
2023/04/04 11:28:21;;;;;;;8.55;6.12;;;;;;;15.68;67.72;100553.83;1777914;79;21577;-65
2023/04/04 11:31:35;;;;;;;7.47;6.40;;;;;;;15.79;68.00;100547.17;1800670;79;21200;-66
2023/04/04 11:34:39;;;;;;;;;;;;;;;16.00;68.24;100548.44;1790449;79;21189;-60
2023/04/04 11:38:05;;;;;;;9.85;6.10;;;;;;;16.19;68.12;100544.89;1769575;79;20489;-59
2023/04/04 11:41:13;;;;;;;13.20;6.78;;;;;;;16.26;67.90;100551.30;1778661;79;21591;-61
2023/04/04 11:44:24;;;;;;;9.85;6.20;;;;;;;16.34;67.70;100544.20;1786995;79;21386;-59
2023/04/04 11:47:30;;;;;;;12.05;6.42;;;;;;;16.40;67.57;100544.73;1781644;79;21197;-58
2023/04/04 11:50:48;;;;;;;12.85;9.68;;;;;;;16.47;67.49;100542.54;1779871;78;21586;-55
2023/04/04 11:53:56;;;;;;;10.82;6.67;;;;;;;16.52;67.49;100538.10;1782624;79;21713;-55
2023/04/04 11:57:02;;;;;;;7.87;6.30;;;;;;;16.68;67.55;100538.22;1774402;79;21259;-55
2023/04/04 12:00:11;;;;;;;11.38;7.80;;;;;;;16.80;67.24;100525.45;1784982;79;21191;-56
2023/04/04 12:03:18;;;;;;;10.95;6.58;;;;;;;16.88;66.74;100530.77;1791595;79;21208;-55
2023/04/04 12:06:24;;;;;;;10.63;6.03;;;;;;;16.90;66.49;100535.56;1799138;79;21623;-55
2023/04/04 12:09:32;;;;;;;11.55;6.53;;;;;;;16.88;66.42;100528.01;1800432;79;21185;-56
2023/04/04 12:12:38;;;;;;;8.50;6.87;;;;;;;16.75;66.03;100523.85;1797114;79;21593;-59
2023/04/04 12:15:45;;;;;;;11.88;6.40;;;;;;;16.58;66.01;100523.95;1743045;81;21177;-59
2023/04/04 12:18:52;;;;;;;12.18;6.95;;;;;;;16.61;66.39;100514.72;1768466;79;21267;-58
2023/04/04 12:22:00;;;;;;;9.98;6.92;;;;;;;16.74;66.37;100515.25;1785307;79;21196;-59
2023/04/04 12:25:08;;;;;;;8.85;7.08;;;;;;;16.79;66.09;100509.39;1787021;79;21202;-60
2023/04/04 12:28:15;;;;;;;10.43;7.33;;;;;;;16.75;65.84;100505.88;1776356;79;21727;-58
2023/04/04 12:31:20;;;;;;;9.33;6.97;;;;;;;16.74;65.72;100504.19;1779816;79;21206;-63
2023/04/04 12:34:34;;;;;;;8.33;6.65;;;;;;;16.75;65.81;100512.80;1792738;78;21716;-60
2023/04/04 12:37:43;;;;;;;9.80;6.60;;;;;;;16.80;65.74;100511.11;1786134;79;21191;-59
2023/04/04 12:40:49;;;;;;;9.10;6.37;;;;;;;16.91;65.76;100514.61;1749273;79;21260;-60
2023/04/04 12:43:55;;;;;;;10.60;7.12;;;;;;;16.89;65.39;100506.19;1776682;79;21177;-59
2023/04/04 12:47:09;;;;;;;12.20;7.15;;;;;;;16.91;65.43;100509.61;1781615;79;21588;-59
2023/04/04 12:50:17;;;;;;;13.70;7.65;;;;;;;17.04;65.54;100506.84;1782241;79;21189;-59
2023/04/04 12:53:23;;;;;;;9.55;7.30;;;;;;;17.14;65.34;100512.23;1781610;79;21863;-58
2023/04/04 12:56:32;;;;;;;11.90;7.50;;;;;;;17.21;65.13;100517.77;1773502;79;21857;-59
2023/04/04 12:59:40;;;;;;;12.07;7.47;;;;;;;17.28;65.08;100508.93;1772358;79;21788;-59
2023/04/04 13:02:48;;;;;;;12.95;7.12;;;;;;;17.27;64.82;100502.53;1774270;79;21731;-58
2023/04/04 13:05:56;;;;;;;11.33;7.60;;;;;;;17.28;64.66;100505.61;1769256;80;21266;-59
2023/04/04 13:09:03;;;;;;;8.45;7.12;;;;;;;17.27;64.55;100507.21;1782227;79;21321;-59
2023/04/04 13:12:13;;;;;;;19.32;10.98;;;;;;;17.25;64.37;100509.37;1797616;79;21523;-59
2023/04/04 13:15:19;;;;;;;12.07;8.03;;;;;;;17.26;64.38;100512.44;1770387;79;21201;-60
2023/04/04 13:18:30;;;;;;;9.03;7.42;;;;;;;17.35;64.28;100509.75;1769498;80;21193;-58
2023/04/04 13:21:37;;;;;;;9.98;7.62;;;;;;;17.39;64.08;100513.28;1774756;79;21345;-58
2023/04/04 13:24:45;;;;;;;12.37;7.55;;;;;;;17.37;63.81;100507.10;1775941;79;21229;-58
2023/04/04 13:27:52;;;;;;;11.73;6.90;;;;;;;17.38;63.88;100516.23;1734636;81;21818;-59
2023/04/04 13:30:59;;;;;;;10.63;6.92;;;;;;;17.41;63.95;100508.91;1753722;82;21194;-59
2023/04/04 13:34:06;;;;;;;8.25;6.97;;;;;;;17.52;63.96;100511.03;1735401;82;21220;-58
2023/04/04 13:37:12;;;;;;;9.73;7.67;;;;;;;17.52;63.64;100512.42;1784712;79;21228;-59
2023/04/04 13:40:18;;;;;;;12.30;7.45;;;;;;;17.58;63.64;100521.23;1777119;79;21349;-59
2023/04/04 13:43:25;;;;;;;10.63;6.53;;;;;;;17.58;63.52;100520.67;1770617;79;21213;-59
2023/04/04 13:46:32;;;;;;;12.05;6.60;;;;;;;17.59;63.40;100518.24;1780199;79;21601;-58
2023/04/04 13:49:37;;;;;;;8.70;6.62;;;;;;;17.59;63.34;100516.00;1767400;81;21177;-58
2023/04/04 13:52:43;;;;;;;10.75;6.72;;;;;;;17.56;63.05;100517.83;1733529;81;21613;-59
2023/04/04 13:55:50;;;;;;;9.95;5.92;;;;;;;17.53;63.07;100524.66;1779157;79;21197;-59
2023/04/04 13:58:56;;;;;;;10.23;7.45;;;;;;;17.53;63.02;100515.49;1790285;79;21186;-59
2023/04/04 14:02:04;;;;;;;10.35;7.00;;;;;;;17.50;62.77;100524.23;1795614;79;21173;-59
2023/04/04 14:05:10;;;;;;;12.63;6.90;;;;;;;17.44;62.65;100519.02;1732005;83;21606;-61
2023/04/04 14:08:17;;;;;;;8.48;6.28;;;;;;;17.37;62.50;100513.16;1797021;79;21178;-57
2023/04/04 14:11:29;;;;;;;10.45;6.97;;;;;;;17.29;62.47;100527.22;1783078;78;21757;-56
2023/04/04 14:14:31;;;;;;;7.90;6.33;;;;;;;17.17;62.29;100520.66;1793664;79;21244;-57
2023/04/04 14:17:38;;;;;;;13.03;6.92;;;;;;;17.08;62.19;100517.77;1774079;79;21171;-57
2023/04/04 14:20:45;;;;;;;12.37;7.05;;;;;;;17.03;62.24;100517.04;1787136;78;21383;-59
2023/04/04 14:23:51;;;;;;;13.40;7.25;;;;;;;17.00;62.30;100520.80;1781127;79;21194;-60
2023/04/04 14:27:00;;;;;;;10.40;7.22;;;;;;;16.97;62.25;100519.80;1771235;80;21225;-60
2023/04/04 14:30:09;;;;;;;9.23;7.05;;;;;;;16.89;62.12;100517.25;1770757;81;21315;-61
2023/04/04 14:33:15;;;;;;;12.10;7.95;;;;;;;16.77;61.90;100518.97;1770177;80;21206;-60